sensor_id;sensor_type;location;lat;lon;timestamp;pressure;altitude;pressure_sealevel;temperature;humidity
53506;BME280;39388;50.936;6.848;2023-01-31T00:01:45;101911.81;;;6.49;75.15
53506;BME280;39388;50.936;6.848;2023-01-31T00:04:15;101916.25;;;6.54;75.07
53506;BME280;39388;50.936;6.848;2023-01-31T00:06:46;101917.13;;;6.55;74.86
53506;BME280;39388;50.936;6.848;2023-01-31T00:09:20;101912.72;;;6.51;75.17
53506;BME280;39388;50.936;6.848;2023-01-31T00:11:50;101906.69;;;6.49;74.92
53506;BME280;39388;50.936;6.848;2023-01-31T00:14:20;101898.75;;;6.41;75.17
53506;BME280;39388;50.936;6.848;2023-01-31T00:16:51;101904.81;;;6.43;75.00
53506;BME280;39388;50.936;6.848;2023-01-31T00:19:21;101895.13;;;6.34;75.58
53506;BME280;39388;50.936;6.848;2023-01-31T00:21:52;101915.16;;;6.46;75.21
53506;BME280;39388;50.936;6.848;2023-01-31T00:24:22;101904.69;;;6.40;75.74
53506;BME280;39388;50.936;6.848;2023-01-31T00:26:53;101911.69;;;6.45;75.22
53506;BME280;39388;50.936;6.848;2023-01-31T00:29:25;101912.72;;;6.51;75.48
53506;BME280;39388;50.936;6.848;2023-01-31T00:31:56;101910.97;;;6.50;75.69
53506;BME280;39388;50.936;6.848;2023-01-31T00:34:26;101907.41;;;6.44;74.75
53506;BME280;39388;50.936;6.848;2023-01-31T00:36:56;101903.91;;;6.42;75.05
53506;BME280;39388;50.936;6.848;2023-01-31T00:39:27;101911.66;;;6.44;74.89
53506;BME280;39388;50.936;6.848;2023-01-31T00:41:57;101907.34;;;6.43;75.12
53506;BME280;39388;50.936;6.848;2023-01-31T00:44:27;101898.75;;;6.41;75.14
53506;BME280;39388;50.936;6.848;2023-01-31T00:46:58;101890.03;;;6.36;75.09
53506;BME280;39388;50.936;6.848;2023-01-31T00:49:28;101891.66;;;6.32;75.10
53506;BME280;39388;50.936;6.848;2023-01-31T00:51:58;101900.00;;;6.26;75.17
53506;BME280;39388;50.936;6.848;2023-01-31T00:54:29;101907.59;;;6.23;75.88
53506;BME280;39388;50.936;6.848;2023-01-31T00:56:59;101899.53;;;6.12;75.55
53506;BME280;39388;50.936;6.848;2023-01-31T00:59:29;101907.91;;;6.07;75.85
53506;BME280;39388;50.936;6.848;2023-01-31T01:02:03;101899.13;;;5.98;75.59
53506;BME280;39388;50.936;6.848;2023-01-31T01:04:33;101897.13;;;5.90;75.72
53506;BME280;39388;50.936;6.848;2023-01-31T01:07:04;101916.78;;;5.91;76.11
53506;BME280;39388;50.936;6.848;2023-01-31T01:09:34;101918.25;;;5.84;76.91
53506;BME280;39388;50.936;6.848;2023-01-31T01:12:05;101903.41;;;5.74;75.96
53506;BME280;39388;50.936;6.848;2023-01-31T01:14:35;101913.84;;;5.80;76.60
53506;BME280;39388;50.936;6.848;2023-01-31T01:17:05;101918.25;;;5.84;76.11
53506;BME280;39388;50.936;6.848;2023-01-31T01:19:36;101912.16;;;5.80;76.32
53506;BME280;39388;50.936;6.848;2023-01-31T01:22:06;101914.09;;;5.88;76.22
53506;BME280;39388;50.936;6.848;2023-01-31T01:24:36;101922.75;;;5.91;76.03
53506;BME280;39388;50.936;6.848;2023-01-31T01:27:07;101906.31;;;5.84;75.70
53506;BME280;39388;50.936;6.848;2023-01-31T01:29:38;101918.63;;;5.95;76.34
53506;BME280;39388;50.936;6.848;2023-01-31T01:32:08;101911.50;;;5.86;75.78
53506;BME280;39388;50.936;6.848;2023-01-31T01:34:39;101908.31;;;5.93;75.91
53506;BME280;39388;50.936;6.848;2023-01-31T01:37:09;101911.66;;;5.91;76.03
53506;BME280;39388;50.936;6.848;2023-01-31T01:39:49;101926.34;;;5.96;75.74
53506;BME280;39388;50.936;6.848;2023-01-31T01:42:23;101906.38;;;5.86;76.10
53506;BME280;39388;50.936;6.848;2023-01-31T01:44:57;101923.69;;;5.93;75.99
53506;BME280;39388;50.936;6.848;2023-01-31T01:47:36;101923.78;;;5.96;76.27
53506;BME280;39388;50.936;6.848;2023-01-31T01:50:29;101917.00;;;5.97;76.04
53506;BME280;39388;50.936;6.848;2023-01-31T01:53:15;101903.16;;;5.92;76.13
53506;BME280;39388;50.936;6.848;2023-01-31T01:58:26;101897.13;;;5.90;76.16
53506;BME280;39388;50.936;6.848;2023-01-31T02:00:58;101893.59;;;5.86;75.35
53506;BME280;39388;50.936;6.848;2023-01-31T02:03:29;101877.16;;;5.79;76.03
53506;BME280;39388;50.936;6.848;2023-01-31T02:06:02;101906.53;;;5.91;75.80
53506;BME280;39388;50.936;6.848;2023-01-31T02:08:35;101895.22;;;5.84;76.27
53506;BME280;39388;50.936;6.848;2023-01-31T02:11:23;101900.44;;;5.87;75.88
53506;BME280;39388;50.936;6.848;2023-01-31T02:14:01;101897.78;;;5.84;75.72
53506;BME280;39388;50.936;6.848;2023-01-31T02:16:33;101888.06;;;5.74;75.96
53506;BME280;39388;50.936;6.848;2023-01-31T02:19:23;101900.03;;;5.75;75.99
53506;BME280;39388;50.936;6.848;2023-01-31T02:22:29;101908.69;;;5.78;76.04
53506;BME280;39388;50.936;6.848;2023-01-31T02:34:13;101897.09;;;5.64;76.61
53506;BME280;39388;50.936;6.848;2023-01-31T02:39:46;101897.22;;;5.67;75.56
53506;BME280;39388;50.936;6.848;2023-01-31T02:45:09;101899.84;;;5.70;76.28
53506;BME280;39388;50.936;6.848;2023-01-31T02:48:18;101895.47;;;5.66;75.93
53506;BME280;39388;50.936;6.848;2023-01-31T02:53:46;101892.50;;;5.53;76.15
53506;BME280;39388;50.936;6.848;2023-01-31T02:56:20;101886.38;;;5.50;76.17
53506;BME280;39388;50.936;6.848;2023-01-31T02:59:01;101881.09;;;5.45;76.40
53506;BME280;39388;50.936;6.848;2023-01-31T03:01:36;101885.25;;;5.42;76.35
53506;BME280;39388;50.936;6.848;2023-01-31T03:04:09;101892.00;;;5.40;76.26
53506;BME280;39388;50.936;6.848;2023-01-31T03:06:51;101907.56;;;5.46;76.86
53506;BME280;39388;50.936;6.848;2023-01-31T03:09:33;101904.66;;;5.36;77.02
53506;BME280;39388;50.936;6.848;2023-01-31T03:12:31;101882.84;;;5.22;76.61
53506;BME280;39388;50.936;6.848;2023-01-31T03:19:00;101886.53;;;5.06;76.68
53506;BME280;39388;50.936;6.848;2023-01-31T03:21:38;101877.69;;;4.98;76.98
53506;BME280;39388;50.936;6.848;2023-01-31T03:24:12;101886.38;;;5.01;77.19
53506;BME280;39388;50.936;6.848;2023-01-31T03:26:44;101874.97;;;4.93;76.72
53506;BME280;39388;50.936;6.848;2023-01-31T03:29:15;101881.91;;;4.96;76.88
53506;BME280;39388;50.936;6.848;2023-01-31T03:31:52;101867.84;;;4.84;77.59
53506;BME280;39388;50.936;6.848;2023-01-31T03:34:24;101872.78;;;4.80;77.70
53506;BME280;39388;50.936;6.848;2023-01-31T03:37:09;101877.78;;;4.76;77.44
53506;BME280;39388;50.936;6.848;2023-01-31T03:43:25;101896.53;;;4.77;77.80
53506;BME280;39388;50.936;6.848;2023-01-31T03:46:01;101885.19;;;4.69;77.91
53506;BME280;39388;50.936;6.848;2023-01-31T03:48:39;101876.47;;;4.64;77.88
53506;BME280;39388;50.936;6.848;2023-01-31T03:51:17;101885.19;;;4.69;77.85
53506;BME280;39388;50.936;6.848;2023-01-31T03:53:51;101877.31;;;4.64;78.37
53506;BME280;39388;50.936;6.848;2023-01-31T03:58:59;101887.44;;;4.61;78.13
53506;BME280;39388;50.936;6.848;2023-01-31T04:01:35;101877.81;;;4.55;78.10
53506;BME280;39388;50.936;6.848;2023-01-31T04:06:46;101881.09;;;4.51;78.49
53506;BME280;39388;50.936;6.848;2023-01-31T04:09:17;101864.53;;;4.41;77.87
53506;BME280;39388;50.936;6.848;2023-01-31T04:11:48;101875.06;;;4.49;78.71
53506;BME280;39388;50.936;6.848;2023-01-31T04:14:19;101880.16;;;4.49;78.61
53506;BME280;39388;50.936;6.848;2023-01-31T04:16:49;101868.97;;;4.45;78.52
53506;BME280;39388;50.936;6.848;2023-01-31T04:19:20;101858.66;;;4.44;78.74
53506;BME280;39388;50.936;6.848;2023-01-31T04:21:50;101868.88;;;4.44;78.77
53506;BME280;39388;50.936;6.848;2023-01-31T04:24:20;101857.63;;;4.39;79.10
53506;BME280;39388;50.936;6.848;2023-01-31T04:26:51;101858.63;;;4.42;79.07
53506;BME280;39388;50.936;6.848;2023-01-31T04:29:21;101856.91;;;4.43;78.95
53506;BME280;39388;50.936;6.848;2023-01-31T04:31:52;101847.34;;;4.37;78.97
53506;BME280;39388;50.936;6.848;2023-01-31T04:34:22;101845.69;;;4.38;79.31
53506;BME280;39388;50.936;6.848;2023-01-31T04:36:52;101849.16;;;4.40;79.54
53506;BME280;39388;50.936;6.848;2023-01-31T04:39:23;101831.84;;;4.33;79.23
53506;BME280;39388;50.936;6.848;2023-01-31T04:41:53;101835.16;;;4.30;79.24
53506;BME280;39388;50.936;6.848;2023-01-31T04:44:24;101833.41;;;4.29;79.33
53506;BME280;39388;50.936;6.848;2023-01-31T04:46:54;101843.00;;;4.35;79.46
53506;BME280;39388;50.936;6.848;2023-01-31T04:49:24;101835.09;;;4.28;79.75
53506;BME280;39388;50.936;6.848;2023-01-31T04:51:55;101842.06;;;4.33;79.75
53506;BME280;39388;50.936;6.848;2023-01-31T04:54:26;101846.41;;;4.35;79.55
53506;BME280;39388;50.936;6.848;2023-01-31T04:56:56;101838.56;;;4.30;79.57
53506;BME280;39388;50.936;6.848;2023-01-31T04:59:26;101830.75;;;4.26;79.86
53506;BME280;39388;50.936;6.848;2023-01-31T05:01:57;101821.34;;;4.25;80.17
53506;BME280;39388;50.936;6.848;2023-01-31T05:04:27;101831.72;;;4.29;79.86
53506;BME280;39388;50.936;6.848;2023-01-31T05:06:58;101808.84;;;4.10;80.09
53506;BME280;39388;50.936;6.848;2023-01-31T05:09:36;101816.63;;;4.13;80.30
53506;BME280;39388;50.936;6.848;2023-01-31T05:12:09;101783.41;;;3.90;80.12
53506;BME280;39388;50.936;6.848;2023-01-31T05:15:06;101727.03;;;3.63;80.34
53506;BME280;39388;50.936;6.848;2023-01-31T05:17:44;101720.09;;;3.59;79.91
53506;BME280;39388;50.936;6.848;2023-01-31T05:20:18;101793.25;;;4.02;81.08
53506;BME280;39388;50.936;6.848;2023-01-31T05:22:48;101788.00;;;3.99;80.69
53506;BME280;39388;50.936;6.848;2023-01-31T05:25:19;101794.44;;;4.12;80.92
53506;BME280;39388;50.936;6.848;2023-01-31T05:27:50;101782.63;;;4.14;80.54
53506;BME280;39388;50.936;6.848;2023-01-31T05:30:20;101758.84;;;4.15;80.92
53506;BME280;39388;50.936;6.848;2023-01-31T05:32:53;101801.50;;;4.40;80.99
53506;BME280;39388;50.936;6.848;2023-01-31T05:35:23;101807.75;;;4.49;80.75
53506;BME280;39388;50.936;6.848;2023-01-31T05:37:54;101808.03;;;4.56;80.85
53506;BME280;39388;50.936;6.848;2023-01-31T05:40:25;101810.81;;;4.61;80.92
53506;BME280;39388;50.936;6.848;2023-01-31T05:42:56;101803.31;;;4.66;80.48
53506;BME280;39388;50.936;6.848;2023-01-31T05:45:29;101815.59;;;4.76;81.38
53506;BME280;39388;50.936;6.848;2023-01-31T05:48:19;101788.81;;;4.66;80.72
53506;BME280;39388;50.936;6.848;2023-01-31T05:55:01;101822.34;;;4.98;80.45
53506;BME280;39388;50.936;6.848;2023-01-31T06:02:44;101761.53;;;4.65;80.10
53506;BME280;39388;50.936;6.848;2023-01-31T06:05:57;101742.56;;;4.58;80.60
53506;BME280;39388;50.936;6.848;2023-01-31T06:08:27;101694.00;;;4.34;80.02
53506;BME280;39388;50.936;6.848;2023-01-31T06:11:01;101748.88;;;4.68;80.50
53506;BME280;39388;50.936;6.848;2023-01-31T06:13:31;101713.81;;;4.40;80.28
53506;BME280;39388;50.936;6.848;2023-01-31T06:16:02;101707.03;;;4.40;80.48
53506;BME280;39388;50.936;6.848;2023-01-31T06:18:33;101789.78;;;4.93;80.58
53506;BME280;39388;50.936;6.848;2023-01-31T06:21:03;101790.88;;;4.99;80.54
53506;BME280;39388;50.936;6.848;2023-01-31T06:23:33;101774.56;;;4.96;80.42
53506;BME280;39388;50.936;6.848;2023-01-31T06:26:04;101781.63;;;5.03;80.62
53506;BME280;39388;50.936;6.848;2023-01-31T06:28:35;101781.88;;;5.11;80.46
53506;BME280;39388;50.936;6.848;2023-01-31T06:31:09;101784.44;;;5.11;80.53
53506;BME280;39388;50.936;6.848;2023-01-31T06:33:40;101794.00;;;5.16;80.84
53506;BME280;39388;50.936;6.848;2023-01-31T06:36:10;101787.16;;;5.15;80.79
53506;BME280;39388;50.936;6.848;2023-01-31T06:38:41;101788.31;;;5.24;80.47
53506;BME280;39388;50.936;6.848;2023-01-31T06:41:11;101782.38;;;5.25;80.50
53506;BME280;39388;50.936;6.848;2023-01-31T06:43:42;101761.69;;;5.18;80.32
53506;BME280;39388;50.936;6.848;2023-01-31T06:46:12;101779.84;;;5.26;80.26
53506;BME280;39388;50.936;6.848;2023-01-31T06:48:43;101779.09;;;5.29;80.37
53506;BME280;39388;50.936;6.848;2023-01-31T06:51:14;101780.91;;;5.31;80.14
53506;BME280;39388;50.936;6.848;2023-01-31T06:53:45;101786.94;;;5.33;80.02
53506;BME280;39388;50.936;6.848;2023-01-31T06:56:15;101778.00;;;5.22;80.17
53506;BME280;39388;50.936;6.848;2023-01-31T06:58:46;101766.91;;;5.21;80.14
53506;BME280;39388;50.936;6.848;2023-01-31T07:01:16;101761.66;;;5.17;79.87
53506;BME280;39388;50.936;6.848;2023-01-31T07:03:47;101792.09;;;5.35;80.01
53506;BME280;39388;50.936;6.848;2023-01-31T07:06:17;101784.47;;;5.36;79.64
53506;BME280;39388;50.936;6.848;2023-01-31T07:08:49;101784.72;;;5.44;80.01
53506;BME280;39388;50.936;6.848;2023-01-31T07:11:20;101789.00;;;5.45;79.67
53506;BME280;39388;50.936;6.848;2023-01-31T07:13:50;101780.34;;;5.40;79.38
53506;BME280;39388;50.936;6.848;2023-01-31T07:16:21;101803.44;;;5.43;79.48
53506;BME280;39388;50.936;6.848;2023-01-31T07:18:54;101811.34;;;5.49;79.96
53506;BME280;39388;50.936;6.848;2023-01-31T07:21:25;101799.31;;;5.47;79.45
53506;BME280;39388;50.936;6.848;2023-01-31T07:23:55;101812.25;;;5.51;79.26
53506;BME280;39388;50.936;6.848;2023-01-31T07:26:26;101812.25;;;5.51;79.27
53506;BME280;39388;50.936;6.848;2023-01-31T07:28:56;101829.53;;;5.59;78.89
53506;BME280;39388;50.936;6.848;2023-01-31T07:31:26;101818.50;;;5.60;78.92
53506;BME280;39388;50.936;6.848;2023-01-31T07:33:56;101810.03;;;5.62;78.71
53506;BME280;39388;50.936;6.848;2023-01-31T07:36:27;101824.06;;;5.74;78.69
53506;BME280;39388;50.936;6.848;2023-01-31T07:38:57;101809.56;;;5.74;78.65
53506;BME280;39388;50.936;6.848;2023-01-31T07:41:30;101809.69;;;5.77;78.44
53506;BME280;39388;50.936;6.848;2023-01-31T07:44:00;101796.84;;;5.76;77.96
53506;BME280;39388;50.936;6.848;2023-01-31T07:46:30;101803.78;;;5.80;77.37
53506;BME280;39388;50.936;6.848;2023-01-31T07:49:03;101785.06;;;5.81;77.79
53506;BME280;39388;50.936;6.848;2023-01-31T07:51:33;101776.66;;;5.85;77.58
53506;BME280;39388;50.936;6.848;2023-01-31T07:54:05;101766.53;;;5.88;77.22
53506;BME280;39388;50.936;6.848;2023-01-31T07:56:36;101761.41;;;5.88;77.01
53506;BME280;39388;50.936;6.848;2023-01-31T07:59:06;101759.03;;;5.94;77.35
53506;BME280;39388;50.936;6.848;2023-01-31T08:01:37;101746.13;;;5.91;77.42
53506;BME280;39388;50.936;6.848;2023-01-31T08:04:26;101751.31;;;5.93;76.44
53506;BME280;39388;50.936;6.848;2023-01-31T08:06:56;101757.38;;;5.96;76.48
53506;BME280;39388;50.936;6.848;2023-01-31T08:09:28;101760.22;;;6.06;76.65
53506;BME280;39388;50.936;6.848;2023-01-31T08:11:59;101774.75;;;6.07;76.23
53506;BME280;39388;50.936;6.848;2023-01-31T08:14:30;101768.75;;;6.05;76.67
53506;BME280;39388;50.936;6.848;2023-01-31T08:17:01;101768.78;;;6.06;76.37
53506;BME280;39388;50.936;6.848;2023-01-31T08:19:33;101781.84;;;6.16;76.16
53506;BME280;39388;50.936;6.848;2023-01-31T08:22:03;101780.28;;;6.19;75.70
53506;BME280;39388;50.936;6.848;2023-01-31T08:24:34;101776.22;;;6.26;76.23
53506;BME280;39388;50.936;6.848;2023-01-31T08:27:04;101764.38;;;6.31;75.21
53506;BME280;39388;50.936;6.848;2023-01-31T08:29:35;101760.19;;;6.33;75.46
53506;BME280;39388;50.936;6.848;2023-01-31T08:32:05;101765.53;;;6.41;75.68
53506;BME280;39388;50.936;6.848;2023-01-31T08:34:35;101748.44;;;6.41;75.37
53506;BME280;39388;50.936;6.848;2023-01-31T08:37:05;101748.66;;;6.49;75.57
53506;BME280;39388;50.936;6.848;2023-01-31T08:39:36;101750.56;;;6.55;75.21
53506;BME280;39388;50.936;6.848;2023-01-31T08:42:06;101749.06;;;6.62;74.83
53506;BME280;39388;50.936;6.848;2023-01-31T08:44:36;101720.78;;;6.58;74.96
53506;BME280;39388;50.936;6.848;2023-01-31T08:47:07;101726.88;;;6.64;74.70
53506;BME280;39388;50.936;6.848;2023-01-31T08:49:37;101740.78;;;6.72;74.86
53506;BME280;39388;50.936;6.848;2023-01-31T08:52:09;101736.47;;;6.71;74.58
53506;BME280;39388;50.936;6.848;2023-01-31T08:54:40;101746.03;;;6.77;74.62
53506;BME280;39388;50.936;6.848;2023-01-31T08:57:10;101740.06;;;6.76;74.72
53506;BME280;39388;50.936;6.848;2023-01-31T08:59:40;101759.69;;;6.77;74.34
53506;BME280;39388;50.936;6.848;2023-01-31T09:02:11;101755.59;;;6.84;75.06
53506;BME280;39388;50.936;6.848;2023-01-31T09:04:41;101735.91;;;6.81;74.86
53506;BME280;39388;50.936;6.848;2023-01-31T09:07:11;101733.59;;;6.90;74.73
53506;BME280;39388;50.936;6.848;2023-01-31T09:09:42;101725.00;;;6.88;74.41
53506;BME280;39388;50.936;6.848;2023-01-31T09:12:12;101727.56;;;6.88;74.83
53506;BME280;39388;50.936;6.848;2023-01-31T09:14:43;101742.19;;;6.93;75.08
53506;BME280;39388;50.936;6.848;2023-01-31T09:17:16;101736.16;;;6.90;74.92
53506;BME280;39388;50.936;6.848;2023-01-31T09:19:46;101732.72;;;6.90;74.85
53506;BME280;39388;50.936;6.848;2023-01-31T09:22:17;101740.44;;;6.91;75.10
53506;BME280;39388;50.936;6.848;2023-01-31T09:24:47;101725.03;;;6.90;74.92
53506;BME280;39388;50.936;6.848;2023-01-31T09:27:18;101712.19;;;6.88;74.89
53506;BME280;39388;50.936;6.848;2023-01-31T09:29:48;101711.25;;;6.86;75.07
53506;BME280;39388;50.936;6.848;2023-01-31T09:32:18;101715.81;;;6.98;75.34
53506;BME280;39388;50.936;6.848;2023-01-31T09:34:50;101713.19;;;6.95;75.06
53506;BME280;39388;50.936;6.848;2023-01-31T09:37:20;101713.25;;;6.98;75.13
53506;BME280;39388;50.936;6.848;2023-01-31T09:39:51;101718.59;;;7.06;74.81
53506;BME280;39388;50.936;6.848;2023-01-31T09:42:35;101725.75;;;7.18;75.30
53506;BME280;39388;50.936;6.848;2023-01-31T09:45:14;101709.44;;;7.16;75.37
53506;BME280;39388;50.936;6.848;2023-01-31T09:47:49;101728.66;;;7.32;74.98
53506;BME280;39388;50.936;6.848;2023-01-31T09:53:03;101698.53;;;7.25;75.35
53506;BME280;39388;50.936;6.848;2023-01-31T09:59:03;101691.03;;;7.32;75.16
53506;BME280;39388;50.936;6.848;2023-01-31T10:07:12;101699.06;;;7.45;75.20
53506;BME280;39388;50.936;6.848;2023-01-31T10:13:20;101700.91;;;7.50;75.13
53506;BME280;39388;50.936;6.848;2023-01-31T10:16:03;101691.41;;;7.46;75.37
53506;BME280;39388;50.936;6.848;2023-01-31T10:18:39;101669.91;;;7.43;75.54
53506;BME280;39388;50.936;6.848;2023-01-31T10:21:22;101664.84;;;7.44;75.47
53506;BME280;39388;50.936;6.848;2023-01-31T10:24:00;101669.28;;;7.51;75.50
53506;BME280;39388;50.936;6.848;2023-01-31T10:26:35;101662.47;;;7.54;75.46
53506;BME280;39388;50.936;6.848;2023-01-31T10:29:20;101672.13;;;7.64;75.28
53506;BME280;39388;50.936;6.848;2023-01-31T10:32:00;101654.19;;;7.65;75.13
53506;BME280;39388;50.936;6.848;2023-01-31T10:34:40;101671.53;;;7.76;75.30
53506;BME280;39388;50.936;6.848;2023-01-31T10:37:28;101660.44;;;7.78;75.11
53506;BME280;39388;50.936;6.848;2023-01-31T10:42:54;101652.81;;;7.81;75.16
53506;BME280;39388;50.936;6.848;2023-01-31T10:45:27;101652.00;;;7.82;75.23
53506;BME280;39388;50.936;6.848;2023-01-31T10:48:21;101654.53;;;7.81;75.14
53506;BME280;39388;50.936;6.848;2023-01-31T10:51:43;101644.31;;;7.84;75.33
53506;BME280;39388;50.936;6.848;2023-01-31T10:56:48;101616.13;;;7.86;75.33
53506;BME280;39388;50.936;6.848;2023-01-31T10:59:32;101611.06;;;7.89;75.09
53506;BME280;39388;50.936;6.848;2023-01-31T11:02:04;101622.34;;;7.98;74.97
53506;BME280;39388;50.936;6.848;2023-01-31T11:04:38;101608.72;;;8.01;74.94
53506;BME280;39388;50.936;6.848;2023-01-31T11:07:10;101598.41;;;8.00;74.92
53506;BME280;39388;50.936;6.848;2023-01-31T11:09:52;101576.16;;;8.00;74.99
53506;BME280;39388;50.936;6.848;2023-01-31T11:12:51;101599.53;;;8.12;74.67
53506;BME280;39388;50.936;6.848;2023-01-31T11:15:24;101592.72;;;8.16;74.62
53506;BME280;39388;50.936;6.848;2023-01-31T11:17:58;101579.09;;;8.19;74.37
53506;BME280;39388;50.936;6.848;2023-01-31T11:20:33;101579.19;;;8.23;74.38
53506;BME280;39388;50.936;6.848;2023-01-31T11:23:05;101568.06;;;8.24;74.47
53506;BME280;39388;50.936;6.848;2023-01-31T11:25:36;101544.81;;;8.18;74.14
53506;BME280;39388;50.936;6.848;2023-01-31T11:28:18;101571.63;;;8.33;74.43
53506;BME280;39388;50.936;6.848;2023-01-31T11:30:51;101569.97;;;8.36;73.92
53506;BME280;39388;50.936;6.848;2023-01-31T11:33:55;101567.53;;;8.41;73.92
53506;BME280;39388;50.936;6.848;2023-01-31T11:36:40;101548.66;;;8.40;73.81
53506;BME280;39388;50.936;6.848;2023-01-31T11:39:25;101542.63;;;8.38;73.82
53506;BME280;39388;50.936;6.848;2023-01-31T11:42:04;101553.09;;;8.49;73.56
53506;BME280;39388;50.936;6.848;2023-01-31T11:44:34;101553.97;;;8.51;73.75
53506;BME280;39388;50.936;6.848;2023-01-31T11:47:10;101548.91;;;8.54;73.72
53506;BME280;39388;50.936;6.848;2023-01-31T11:49:42;101546.41;;;8.59;73.45
53506;BME280;39388;50.936;6.848;2023-01-31T11:52:16;101554.25;;;8.67;73.49
53506;BME280;39388;50.936;6.848;2023-01-31T11:55:03;101531.03;;;8.64;73.28
53506;BME280;39388;50.936;6.848;2023-01-31T11:57:36;101531.13;;;8.70;73.52
53506;BME280;39388;50.936;6.848;2023-01-31T12:00:22;101517.41;;;8.68;73.51
53506;BME280;39388;50.936;6.848;2023-01-31T12:03:06;101528.66;;;8.76;73.33
53506;BME280;39388;50.936;6.848;2023-01-31T12:05:41;101509.69;;;8.68;73.23
53506;BME280;39388;50.936;6.848;2023-01-31T12:08:33;101526.03;;;8.73;73.33
53506;BME280;39388;50.936;6.848;2023-01-31T12:11:27;101529.38;;;8.66;73.52
53506;BME280;39388;50.936;6.848;2023-01-31T12:14:16;101524.25;;;8.67;73.71
53506;BME280;39388;50.936;6.848;2023-01-31T12:16:47;101522.56;;;8.68;73.80
53506;BME280;39388;50.936;6.848;2023-01-31T12:22:14;101511.38;;;8.67;74.01
53506;BME280;39388;50.936;6.848;2023-01-31T12:28:15;101516.59;;;8.72;74.03
53506;BME280;39388;50.936;6.848;2023-01-31T12:40:14;101514.75;;;8.63;74.76
53506;BME280;39388;50.936;6.848;2023-01-31T12:42:59;101505.31;;;8.62;74.88
53506;BME280;39388;50.936;6.848;2023-01-31T12:56:41;101485.72;;;8.70;74.74
53506;BME280;39388;50.936;6.848;2023-01-31T12:59:55;101489.19;;;8.74;75.14
53506;BME280;39388;50.936;6.848;2023-01-31T13:05:21;101490.03;;;8.71;75.40
53506;BME280;39388;50.936;6.848;2023-01-31T13:08:16;101474.41;;;8.59;75.58
53506;BME280;39388;50.936;6.848;2023-01-31T13:14:07;101488.25;;;8.67;75.88
53506;BME280;39388;50.936;6.848;2023-01-31T13:16:43;101470.81;;;8.48;75.71
53506;BME280;39388;50.936;6.848;2023-01-31T13:22:00;101474.50;;;8.65;75.84
53506;BME280;39388;50.936;6.848;2023-01-31T13:24:39;101482.19;;;8.64;75.60
53506;BME280;39388;50.936;6.848;2023-01-31T13:27:28;101483.94;;;8.65;76.31
53506;BME280;39388;50.936;6.848;2023-01-31T13:30:16;101486.50;;;8.65;76.03
53506;BME280;39388;50.936;6.848;2023-01-31T13:32:54;101481.25;;;8.58;76.13
53506;BME280;39388;50.936;6.848;2023-01-31T13:35:32;101474.31;;;8.51;76.03
53506;BME280;39388;50.936;6.848;2023-01-31T13:38:13;101484.66;;;8.56;76.24
53506;BME280;39388;50.936;6.848;2023-01-31T13:40:55;101477.66;;;8.49;76.56
53506;BME280;39388;50.936;6.848;2023-01-31T13:43:26;101468.19;;;8.45;76.42
53506;BME280;39388;50.936;6.848;2023-01-31T13:46:01;101476.81;;;8.47;76.54
53506;BME280;39388;50.936;6.848;2023-01-31T13:48:35;101491.47;;;8.54;76.63
53506;BME280;39388;50.936;6.848;2023-01-31T13:54:01;101475.88;;;8.43;76.99
53506;BME280;39388;50.936;6.848;2023-01-31T13:56:35;101491.28;;;8.41;77.20
53506;BME280;39388;50.936;6.848;2023-01-31T13:59:09;101473.28;;;8.41;77.41
53506;BME280;39388;50.936;6.848;2023-01-31T14:01:45;101479.38;;;8.47;77.90
53506;BME280;39388;50.936;6.848;2023-01-31T14:09:38;101461.38;;;8.47;79.03
53506;BME280;39388;50.936;6.848;2023-01-31T14:14:43;101467.44;;;8.50;78.97
53506;BME280;39388;50.936;6.848;2023-01-31T14:22:31;101492.34;;;8.54;80.32
53506;BME280;39388;50.936;6.848;2023-01-31T14:27:44;101492.38;;;8.57;80.72
53506;BME280;39388;50.936;6.848;2023-01-31T14:38:59;101483.81;;;8.58;81.43
53506;BME280;39388;50.936;6.848;2023-01-31T14:53:23;101465.03;;;8.61;81.08
53506;BME280;39388;50.936;6.848;2023-01-31T14:58:43;101468.25;;;8.49;81.43
53506;BME280;39388;50.936;6.848;2023-01-31T15:01:19;101463.94;;;8.47;81.03
53506;BME280;39388;50.936;6.848;2023-01-31T15:06:27;101468.09;;;8.38;81.89
53506;BME280;39388;50.936;6.848;2023-01-31T15:11:49;101460.25;;;8.31;81.84
53506;BME280;39388;50.936;6.848;2023-01-31T15:16:59;101469.50;;;8.21;82.52
53506;BME280;39388;50.936;6.848;2023-01-31T15:19:40;101479.06;;;8.28;82.94
53506;BME280;39388;50.936;6.848;2023-01-31T15:22:16;101468.59;;;8.17;83.03
53506;BME280;39388;50.936;6.848;2023-01-31T15:24:53;101485.81;;;8.23;82.87
53506;BME280;39388;50.936;6.848;2023-01-31T15:27:31;101505.53;;;8.24;82.88
53506;BME280;39388;50.936;6.848;2023-01-31T15:30:07;101485.59;;;8.09;83.04
53506;BME280;39388;50.936;6.848;2023-01-31T15:32:49;101506.19;;;8.12;83.12
53506;BME280;39388;50.936;6.848;2023-01-31T15:35:27;101519.06;;;8.15;83.43
53506;BME280;39388;50.936;6.848;2023-01-31T15:38:03;101526.91;;;8.21;83.36
53506;BME280;39388;50.936;6.848;2023-01-31T15:40:35;101514.63;;;8.06;83.49
53506;BME280;39388;50.936;6.848;2023-01-31T15:43:22;101515.50;;;8.07;83.75
53506;BME280;39388;50.936;6.848;2023-01-31T15:45:52;101517.19;;;8.06;84.00
53506;BME280;39388;50.936;6.848;2023-01-31T15:48:23;101502.41;;;7.93;84.05
53506;BME280;39388;50.936;6.848;2023-01-31T15:50:55;101523.22;;;8.08;84.15
53506;BME280;39388;50.936;6.848;2023-01-31T15:53:26;101523.22;;;8.08;84.90
53506;BME280;39388;50.936;6.848;2023-01-31T15:56:00;101502.50;;;7.97;84.52
53506;BME280;39388;50.936;6.848;2023-01-31T15:58:35;101523.06;;;7.99;84.63
53506;BME280;39388;50.936;6.848;2023-01-31T16:01:13;101521.34;;;7.98;84.87
53506;BME280;39388;50.936;6.848;2023-01-31T16:03:54;101490.03;;;7.72;84.96
53506;BME280;39388;50.936;6.848;2023-01-31T16:06:29;101486.63;;;7.73;85.03
53506;BME280;39388;50.936;6.848;2023-01-31T16:09:06;101522.16;;;7.95;85.30